EDT,Max TemperatureF,Mean TemperatureF,Min TemperatureF,Max Dew PointF,MeanDew PointF,Min DewpointF,Max Humidity, Mean Humidity, Min Humidity, Max Sea Level PressureIn, Mean Sea Level PressureIn, Min Sea Level PressureIn, Max VisibilityMiles, Mean VisibilityMiles, Min VisibilityMiles, Max Wind SpeedMPH, Mean Wind SpeedMPH, Max Gust SpeedMPH,PrecipitationIn, CloudCover, Events, WindDirDegrees
2013-3-1,31,28,27,28,26,24,100,89,85,29.74,29.71,29.66,,,,7,4,15,0.22,,,20
2013-3-2,36,30,27,32,29,23,100,88,83,29.69,29.67,29.66,,,,5,2,15,0.09,,,-1
2013-3-3,39,34,31,32,31,30,97,84,74,29.65,29.57,29.48,,,,5,2,13,0.07,,,-1
2013-3-4,39,34,31,33,32,31,84,81,79,29.78,29.58,29.48,,,,9,3,18,0.09,,,7
2013-3-5,37,34,31,32,31,31,91,83,80,30.19,30.01,29.81,,,,8,3,17,0.02,,,20
2013-3-6,34,31,27,24,21,17,79,63,56,30.38,30.36,30.34,,,,13,10,20,0.00,,,70
2013-3-7,30,28,25,21,19,17,77,70,62,30.39,30.34,30.29,,,,12,8,20,0.00,,,57
2013-3-8,42,32,22,22,19,14,88,67,33,30.37,30.32,30.29,,,,8,4,16,0.01,,,30
2013-3-9,45,32,19,22,18,14,91,60,31,30.42,30.37,30.34,,,,6,1,,0.00,,,-1
2013-3-10,39,31,23,25,23,21,99,63,48,30.44,30.32,30.15,,,,8,2,21,0.01,,,160
2013-3-11,49,40,31,31,28,25,83,67,46,30.17,30.09,29.96,,,,9,5,18,0.00,,,147
2013-3-12,43,40,37,43,34,30,100,82,72,30.00,29.94,29.76,,,,20,12,28,0.58,,,154
2013-3-13,43,36,29,38,29,22,100,77,62,29.73,29.69,29.63,,,,7,5,16,0.06,,,179
2013-3-14,35,26,17,26,20,12,89,76,60,29.72,29.63,29.58,,,,10,5,24,0.05,,,233
2013-3-15,27,16,7,11,5,0,89,65,33,29.77,29.69,29.60,,,,7,4,16,0.01,,,-1
2013-3-16,26,16,7,8,4,-1,91,64,33,29.87,29.78,29.67,,,,6,2,17,0.02,,,-1
2013-3-17,16,7,-2,8,-3,-11,89,64,32,30.28,30.01,29.88,,,,9,3,28,0.02,,,264
2013-3-18,28,10,-6,6,-4,-10,82,57,21,30.44,30.36,30.30,,,,7,1,17,0.01,,,240
2013-3-19,23,14,5,18,4,-3,100,64,34,30.32,30.14,29.87,,,,12,3,21,0.34,,,80
2013-3-20,24,20,17,23,19,16,100,93,87,29.83,29.62,29.52,,,,8,4,18,0.38,,,250
2013-3-21,30,15,1,20,16,-2,92,77,60,29.70,29.64,29.54,,,,14,6,29,0.00,,,206
2013-3-22,33,12,-7,22,11,-11,91,77,52,29.72,29.63,29.48,,,,8,2,18,0.05,,,253
2013-3-23,34,28,23,29,21,18,90,76,61,29.59,29.43,29.36,,,,9,6,21,0.08,,,240
2013-3-24,39,27,16,30,27,16,100,79,64,29.81,29.72,29.60,,,,7,3,15,0.02,,,300
2013-3-25,35,32,28,28,24,22,88,72,60,29.83,29.78,29.72,,,,7,3,15,0.01,,,-1
2013-3-26,40,35,31,30,27,25,92,70,57,29.72,29.69,29.67,,,,9,2,18,0.01,,,317
2013-3-27,39,34,31,38,35,33,100,88,82,29.90,29.79,29.71,,,,7,1,14,0.11,,,20
2013-3-28,49,40,32,33,28,24,88,58,40,29.96,29.92,29.89,,,,6,1,14,0.01,,,-1
2013-3-29,48,40,29,33,19,6,85,46,19,29.98,29.94,29.90,,,,7,2,17,0.00,,,320
2013-3-30,46,34,22,24,12,-2,88,46,14,30.07,30.02,29.98,,,,8,1,14,0.01,,,310
2013-3-31,48,34,21,24,15,9,91,40,21,30.11,30.00,29.81,,,,14,3,22,0.01,,,164